Map Display - LGKP to LLBG
(last flight recorded 16-09-2021, 19:32 - Dale Moore)

Aircraft Weights    Units : Maximums
Passengers :   12  
Cargo : kg 8,845 kg
Suggested Fuel Load : kg 0 kg
 
     
 
Dry Operating : 15,286 kg    
Total Payload : 0 kg 8,845 kg
 
Take Off : 17,783 kg 31,115 kg
 
Expected Landing : 16,209 kg ? kg

Panos Thomas,  YORK ,  G-AGNM,  In Hangar.

Route Distance Previous
Flights
Estimated
Duration
Estimated
Fuel Flow
Estimated
Fuel Use
LGKP - Karpathos, Greece
LLBG - Ben Gurion, Tel Aviv, Israel
437 nm 0 02:41 659 kg/h 1,574 kg

Current weather :-
2020/11/04 06:57
TAF
AMD TAF
AMD LGKP 040753Z 0406/0418 33028G38KT 9999 SCT018
TEMPO 0406/0412 BKN018 PROB30
TEMPO 0406/0412 5000 RA
2021/09/16 18:09
TAF TAF LLBG 161707Z 1618/1718 29005KT 9999 SCT035
BECMG 1619/1621 VRB03KT
TEMPO 1622/1703 14004KT BKN030
BECMG 1707/1710 33005KT FEW045
TEMPO 1710/1714 30012KT TX30/1712Z TN22/1703Z

Back to Virtual Airline